sensor_id;sensor_type;location;lat;lon;timestamp;P1;durP1;ratioP1;P2;durP2;ratioP2
20357;SDS011;75325;47.812;13.026;2024-03-22T00:00:15;0.30;;;0.30;;
20357;SDS011;75325;47.812;13.026;2024-03-22T00:02:42;0.20;;;0.20;;
20357;SDS011;75325;47.812;13.026;2024-03-22T00:05:10;0.20;;;0.20;;
20357;SDS011;75325;47.812;13.026;2024-03-22T00:07:39;0.30;;;0.30;;
20357;SDS011;75325;47.812;13.026;2024-03-22T00:10:07;0.20;;;0.20;;
20357;SDS011;75325;47.812;13.026;2024-03-22T00:12:34;0.20;;;0.20;;
20357;SDS011;75325;47.812;13.026;2024-03-22T00:15:02;0.22;;;0.22;;
20357;SDS011;75325;47.812;13.026;2024-03-22T00:17:30;0.20;;;0.20;;
20357;SDS011;75325;47.812;13.026;2024-03-22T00:20:00;0.20;;;0.20;;
20357;SDS011;75325;47.812;13.026;2024-03-22T00:22:27;0.20;;;0.20;;
20357;SDS011;75325;47.812;13.026;2024-03-22T00:24:56;0.20;;;0.20;;
20357;SDS011;75325;47.812;13.026;2024-03-22T00:27:23;0.20;;;0.20;;
20357;SDS011;75325;47.812;13.026;2024-03-22T00:29:55;0.20;;;0.20;;
20357;SDS011;75325;47.812;13.026;2024-03-22T00:32:23;0.30;;;0.30;;
20357;SDS011;75325;47.812;13.026;2024-03-22T00:34:54;0.25;;;0.25;;
20357;SDS011;75325;47.812;13.026;2024-03-22T00:37:23;0.20;;;0.20;;
20357;SDS011;75325;47.812;13.026;2024-03-22T00:39:51;0.30;;;0.30;;
20357;SDS011;75325;47.812;13.026;2024-03-22T00:42:20;0.22;;;0.22;;
20357;SDS011;75325;47.812;13.026;2024-03-22T00:44:49;0.10;;;0.10;;
20357;SDS011;75325;47.812;13.026;2024-03-22T00:47:16;0.22;;;0.22;;
20357;SDS011;75325;47.812;13.026;2024-03-22T00:49:44;0.28;;;0.28;;
20357;SDS011;75325;47.812;13.026;2024-03-22T00:52:15;0.20;;;0.20;;
20357;SDS011;75325;47.812;13.026;2024-03-22T00:54:43;0.20;;;0.20;;
20357;SDS011;75325;47.812;13.026;2024-03-22T00:57:09;0.20;;;0.20;;
20357;SDS011;75325;47.812;13.026;2024-03-22T00:59:42;0.30;;;0.30;;
20357;SDS011;75325;47.812;13.026;2024-03-22T01:02:10;0.20;;;0.20;;
20357;SDS011;75325;47.812;13.026;2024-03-22T01:04:39;0.20;;;0.20;;
20357;SDS011;75325;47.812;13.026;2024-03-22T01:07:07;0.30;;;0.30;;
20357;SDS011;75325;47.812;13.026;2024-03-22T01:09:34;0.40;;;0.40;;
20357;SDS011;75325;47.812;13.026;2024-03-22T01:12:01;0.30;;;0.30;;
20357;SDS011;75325;47.812;13.026;2024-03-22T01:14:29;0.20;;;0.20;;
20357;SDS011;75325;47.812;13.026;2024-03-22T01:16:58;0.30;;;0.30;;
20357;SDS011;75325;47.812;13.026;2024-03-22T01:19:25;0.20;;;0.20;;
20357;SDS011;75325;47.812;13.026;2024-03-22T01:21:52;0.20;;;0.20;;
20357;SDS011;75325;47.812;13.026;2024-03-22T01:24:22;0.30;;;0.30;;
20357;SDS011;75325;47.812;13.026;2024-03-22T01:26:49;0.20;;;0.20;;
20357;SDS011;75325;47.812;13.026;2024-03-22T01:29:19;0.30;;;0.30;;
20357;SDS011;75325;47.812;13.026;2024-03-22T01:31:48;0.30;;;0.30;;
20357;SDS011;75325;47.812;13.026;2024-03-22T01:34:19;0.32;;;0.32;;
20357;SDS011;75325;47.812;13.026;2024-03-22T01:36:45;0.25;;;0.25;;
20357;SDS011;75325;47.812;13.026;2024-03-22T01:39:12;0.20;;;0.20;;
20357;SDS011;75325;47.812;13.026;2024-03-22T01:41:39;0.30;;;0.30;;
20357;SDS011;75325;47.812;13.026;2024-03-22T01:44:07;0.20;;;0.20;;
20357;SDS011;75325;47.812;13.026;2024-03-22T01:46:34;0.20;;;0.20;;
20357;SDS011;75325;47.812;13.026;2024-03-22T01:49:00;0.20;;;0.20;;
20357;SDS011;75325;47.812;13.026;2024-03-22T01:51:29;0.30;;;0.30;;
20357;SDS011;75325;47.812;13.026;2024-03-22T01:53:56;0.20;;;0.20;;
20357;SDS011;75325;47.812;13.026;2024-03-22T01:56:24;0.20;;;0.20;;
20357;SDS011;75325;47.812;13.026;2024-03-22T01:58:51;0.20;;;0.20;;
20357;SDS011;75325;47.812;13.026;2024-03-22T02:01:19;0.25;;;0.25;;
20357;SDS011;75325;47.812;13.026;2024-03-22T02:03:45;0.30;;;0.30;;
20357;SDS011;75325;47.812;13.026;2024-03-22T02:06:13;0.30;;;0.30;;
20357;SDS011;75325;47.812;13.026;2024-03-22T02:08:41;0.30;;;0.30;;
20357;SDS011;75325;47.812;13.026;2024-03-22T02:11:09;0.20;;;0.20;;
20357;SDS011;75325;47.812;13.026;2024-03-22T02:13:35;0.20;;;0.20;;
20357;SDS011;75325;47.812;13.026;2024-03-22T02:16:03;0.30;;;0.30;;
20357;SDS011;75325;47.812;13.026;2024-03-22T02:18:30;0.30;;;0.30;;
20357;SDS011;75325;47.812;13.026;2024-03-22T02:20:57;0.30;;;0.30;;
20357;SDS011;75325;47.812;13.026;2024-03-22T02:23:28;0.30;;;0.30;;
20357;SDS011;75325;47.812;13.026;2024-03-22T02:25:59;0.30;;;0.30;;
20357;SDS011;75325;47.812;13.026;2024-03-22T02:28:25;0.30;;;0.30;;
20357;SDS011;75325;47.812;13.026;2024-03-22T02:30:52;0.20;;;0.20;;
20357;SDS011;75325;47.812;13.026;2024-03-22T02:33:19;0.20;;;0.20;;
20357;SDS011;75325;47.812;13.026;2024-03-22T02:35:47;0.30;;;0.30;;
20357;SDS011;75325;47.812;13.026;2024-03-22T02:38:13;0.20;;;0.20;;
20357;SDS011;75325;47.812;13.026;2024-03-22T02:40:42;0.20;;;0.20;;
20357;SDS011;75325;47.812;13.026;2024-03-22T02:43:08;0.32;;;0.32;;
20357;SDS011;75325;47.812;13.026;2024-03-22T02:45:36;0.30;;;0.30;;
20357;SDS011;75325;47.812;13.026;2024-03-22T02:48:03;0.20;;;0.20;;
20357;SDS011;75325;47.812;13.026;2024-03-22T02:50:32;0.38;;;0.38;;
20357;SDS011;75325;47.812;13.026;2024-03-22T02:52:58;0.30;;;0.30;;
20357;SDS011;75325;47.812;13.026;2024-03-22T02:55:26;0.30;;;0.30;;
20357;SDS011;75325;47.812;13.026;2024-03-22T02:57:55;0.40;;;0.40;;
20357;SDS011;75325;47.812;13.026;2024-03-22T03:00:25;0.30;;;0.30;;
20357;SDS011;75325;47.812;13.026;2024-03-22T03:02:51;0.30;;;0.30;;
20357;SDS011;75325;47.812;13.026;2024-03-22T03:05:18;0.30;;;0.30;;
20357;SDS011;75325;47.812;13.026;2024-03-22T03:07:45;0.30;;;0.30;;
20357;SDS011;75325;47.812;13.026;2024-03-22T03:10:13;0.40;;;0.40;;
20357;SDS011;75325;47.812;13.026;2024-03-22T03:12:39;0.32;;;0.32;;
20357;SDS011;75325;47.812;13.026;2024-03-22T03:15:09;0.30;;;0.30;;
20357;SDS011;75325;47.812;13.026;2024-03-22T03:17:35;0.30;;;0.30;;
20357;SDS011;75325;47.812;13.026;2024-03-22T03:20:03;0.30;;;0.30;;
20357;SDS011;75325;47.812;13.026;2024-03-22T03:22:33;0.40;;;0.40;;
20357;SDS011;75325;47.812;13.026;2024-03-22T03:25:00;0.30;;;0.30;;
20357;SDS011;75325;47.812;13.026;2024-03-22T03:27:28;0.30;;;0.30;;
20357;SDS011;75325;47.812;13.026;2024-03-22T03:29:55;0.40;;;0.40;;
20357;SDS011;75325;47.812;13.026;2024-03-22T03:32:23;0.40;;;0.40;;
20357;SDS011;75325;47.812;13.026;2024-03-22T03:34:50;0.30;;;0.30;;
20357;SDS011;75325;47.812;13.026;2024-03-22T03:37:16;0.40;;;0.40;;
20357;SDS011;75325;47.812;13.026;2024-03-22T03:39:44;0.40;;;0.40;;
20357;SDS011;75325;47.812;13.026;2024-03-22T03:42:10;0.22;;;0.22;;
20357;SDS011;75325;47.812;13.026;2024-03-22T03:44:38;0.30;;;0.30;;
20357;SDS011;75325;47.812;13.026;2024-03-22T03:47:04;0.30;;;0.30;;
20357;SDS011;75325;47.812;13.026;2024-03-22T03:49:33;0.25;;;0.25;;
20357;SDS011;75325;47.812;13.026;2024-03-22T03:51:59;0.40;;;0.40;;
20357;SDS011;75325;47.812;13.026;2024-03-22T03:54:27;0.20;;;0.20;;
20357;SDS011;75325;47.812;13.026;2024-03-22T03:56:53;0.40;;;0.40;;
20357;SDS011;75325;47.812;13.026;2024-03-22T03:59:20;0.30;;;0.30;;
20357;SDS011;75325;47.812;13.026;2024-03-22T04:01:47;0.20;;;0.20;;
20357;SDS011;75325;47.812;13.026;2024-03-22T04:04:14;0.30;;;0.30;;
20357;SDS011;75325;47.812;13.026;2024-03-22T04:06:43;0.35;;;0.35;;
20357;SDS011;75325;47.812;13.026;2024-03-22T04:09:11;0.30;;;0.30;;
20357;SDS011;75325;47.812;13.026;2024-03-22T04:11:37;0.35;;;0.35;;
20357;SDS011;75325;47.812;13.026;2024-03-22T04:14:04;0.30;;;0.30;;
20357;SDS011;75325;47.812;13.026;2024-03-22T04:16:32;0.30;;;0.30;;
20357;SDS011;75325;47.812;13.026;2024-03-22T04:18:59;0.30;;;0.30;;
20357;SDS011;75325;47.812;13.026;2024-03-22T04:21:26;0.30;;;0.30;;
20357;SDS011;75325;47.812;13.026;2024-03-22T04:23:54;0.30;;;0.30;;
20357;SDS011;75325;47.812;13.026;2024-03-22T04:26:22;0.40;;;0.40;;
20357;SDS011;75325;47.812;13.026;2024-03-22T04:28:49;0.38;;;0.38;;
20357;SDS011;75325;47.812;13.026;2024-03-22T04:31:15;0.40;;;0.40;;
20357;SDS011;75325;47.812;13.026;2024-03-22T04:33:42;0.30;;;0.30;;
20357;SDS011;75325;47.812;13.026;2024-03-22T04:36:09;0.40;;;0.40;;
20357;SDS011;75325;47.812;13.026;2024-03-22T04:38:36;0.30;;;0.30;;
20357;SDS011;75325;47.812;13.026;2024-03-22T04:41:05;0.40;;;0.40;;
20357;SDS011;75325;47.812;13.026;2024-03-22T04:43:32;0.40;;;0.40;;
20357;SDS011;75325;47.812;13.026;2024-03-22T04:45:59;0.40;;;0.40;;
20357;SDS011;75325;47.812;13.026;2024-03-22T04:48:26;0.30;;;0.30;;
20357;SDS011;75325;47.812;13.026;2024-03-22T04:50:53;0.40;;;0.40;;
20357;SDS011;75325;47.812;13.026;2024-03-22T04:53:20;0.30;;;0.30;;
20357;SDS011;75325;47.812;13.026;2024-03-22T04:55:47;0.40;;;0.40;;
20357;SDS011;75325;47.812;13.026;2024-03-22T04:58:19;0.30;;;0.30;;
20357;SDS011;75325;47.812;13.026;2024-03-22T05:00:47;0.40;;;0.40;;
20357;SDS011;75325;47.812;13.026;2024-03-22T05:03:14;0.40;;;0.40;;
20357;SDS011;75325;47.812;13.026;2024-03-22T05:05:41;0.30;;;0.30;;
20357;SDS011;75325;47.812;13.026;2024-03-22T05:08:09;0.40;;;0.40;;
20357;SDS011;75325;47.812;13.026;2024-03-22T05:10:36;0.40;;;0.40;;
20357;SDS011;75325;47.812;13.026;2024-03-22T05:13:03;0.30;;;0.30;;
20357;SDS011;75325;47.812;13.026;2024-03-22T05:15:31;0.40;;;0.40;;
20357;SDS011;75325;47.812;13.026;2024-03-22T05:17:58;0.30;;;0.30;;
20357;SDS011;75325;47.812;13.026;2024-03-22T05:20:25;0.30;;;0.30;;
20357;SDS011;75325;47.812;13.026;2024-03-22T05:22:52;0.40;;;0.40;;
20357;SDS011;75325;47.812;13.026;2024-03-22T05:25:19;0.30;;;0.30;;
20357;SDS011;75325;47.812;13.026;2024-03-22T05:27:46;0.30;;;0.30;;
20357;SDS011;75325;47.812;13.026;2024-03-22T05:30:13;0.40;;;0.40;;
20357;SDS011;75325;47.812;13.026;2024-03-22T05:32:41;0.40;;;0.40;;
20357;SDS011;75325;47.812;13.026;2024-03-22T05:35:08;0.30;;;0.30;;
20357;SDS011;75325;47.812;13.026;2024-03-22T05:37:35;0.35;;;0.35;;
20357;SDS011;75325;47.812;13.026;2024-03-22T05:40:02;0.30;;;0.30;;
20357;SDS011;75325;47.812;13.026;2024-03-22T05:42:30;0.40;;;0.40;;
20357;SDS011;75325;47.812;13.026;2024-03-22T05:44:56;0.35;;;0.35;;
20357;SDS011;75325;47.812;13.026;2024-03-22T05:47:24;0.20;;;0.20;;
20357;SDS011;75325;47.812;13.026;2024-03-22T05:49:52;0.32;;;0.32;;
20357;SDS011;75325;47.812;13.026;2024-03-22T05:52:19;0.40;;;0.40;;
20357;SDS011;75325;47.812;13.026;2024-03-22T05:54:45;0.30;;;0.30;;
20357;SDS011;75325;47.812;13.026;2024-03-22T05:57:13;0.30;;;0.30;;
20357;SDS011;75325;47.812;13.026;2024-03-22T05:59:40;0.20;;;0.20;;
20357;SDS011;75325;47.812;13.026;2024-03-22T06:02:07;0.20;;;0.20;;
20357;SDS011;75325;47.812;13.026;2024-03-22T06:04:34;0.20;;;0.20;;
20357;SDS011;75325;47.812;13.026;2024-03-22T06:07:03;0.30;;;0.30;;
20357;SDS011;75325;47.812;13.026;2024-03-22T06:09:30;0.30;;;0.30;;
20357;SDS011;75325;47.812;13.026;2024-03-22T06:12:03;0.30;;;0.30;;
20357;SDS011;75325;47.812;13.026;2024-03-22T06:14:30;0.20;;;0.20;;
20357;SDS011;75325;47.812;13.026;2024-03-22T06:16:57;0.35;;;0.35;;
20357;SDS011;75325;47.812;13.026;2024-03-22T06:19:25;0.20;;;0.20;;
20357;SDS011;75325;47.812;13.026;2024-03-22T06:21:55;0.20;;;0.20;;
20357;SDS011;75325;47.812;13.026;2024-03-22T06:24:30;0.30;;;0.30;;
20357;SDS011;75325;47.812;13.026;2024-03-22T06:27:06;0.20;;;0.20;;
20357;SDS011;75325;47.812;13.026;2024-03-22T06:29:34;0.30;;;0.30;;
20357;SDS011;75325;47.812;13.026;2024-03-22T06:32:06;0.20;;;0.20;;
20357;SDS011;75325;47.812;13.026;2024-03-22T06:34:35;0.30;;;0.30;;
20357;SDS011;75325;47.812;13.026;2024-03-22T06:37:04;0.30;;;0.30;;
20357;SDS011;75325;47.812;13.026;2024-03-22T06:39:33;0.28;;;0.28;;
20357;SDS011;75325;47.812;13.026;2024-03-22T06:42:05;0.20;;;0.20;;
20357;SDS011;75325;47.812;13.026;2024-03-22T06:44:31;0.30;;;0.30;;
20357;SDS011;75325;47.812;13.026;2024-03-22T06:46:58;17.90;;;7.68;;
20357;SDS011;75325;47.812;13.026;2024-03-22T06:49:24;29.23;;;7.28;;
20357;SDS011;75325;47.812;13.026;2024-03-22T06:51:52;13.30;;;7.28;;
20357;SDS011;75325;47.812;13.026;2024-03-22T06:54:18;14.57;;;6.38;;
20357;SDS011;75325;47.812;13.026;2024-03-22T06:56:47;14.18;;;6.70;;
20357;SDS011;75325;47.812;13.026;2024-03-22T06:59:13;19.55;;;6.82;;
20357;SDS011;75325;47.812;13.026;2024-03-22T07:01:40;22.60;;;6.55;;
20357;SDS011;75325;47.812;13.026;2024-03-22T07:04:07;13.00;;;5.10;;
20357;SDS011;75325;47.812;13.026;2024-03-22T07:06:34;16.13;;;6.00;;
20357;SDS011;75325;47.812;13.026;2024-03-22T07:09:01;8.13;;;4.25;;
20357;SDS011;75325;47.812;13.026;2024-03-22T07:11:29;18.90;;;6.68;;
20357;SDS011;75325;47.812;13.026;2024-03-22T07:13:57;11.98;;;5.57;;
20357;SDS011;75325;47.812;13.026;2024-03-22T07:16:24;12.77;;;6.38;;
20357;SDS011;75325;47.812;13.026;2024-03-22T07:18:50;14.95;;;7.10;;
20357;SDS011;75325;47.812;13.026;2024-03-22T07:21:18;17.45;;;7.10;;
20357;SDS011;75325;47.812;13.026;2024-03-22T07:23:44;14.98;;;5.25;;
20357;SDS011;75325;47.812;13.026;2024-03-22T07:26:11;14.23;;;6.85;;
20357;SDS011;75325;47.812;13.026;2024-03-22T07:28:37;11.63;;;5.85;;
20357;SDS011;75325;47.812;13.026;2024-03-22T07:31:06;14.00;;;6.10;;
20357;SDS011;75325;47.812;13.026;2024-03-22T07:33:33;17.15;;;5.97;;
20357;SDS011;75325;47.812;13.026;2024-03-22T07:36:01;21.08;;;6.38;;
20357;SDS011;75325;47.812;13.026;2024-03-22T07:38:28;14.13;;;5.68;;
20357;SDS011;75325;47.812;13.026;2024-03-22T07:40:55;17.77;;;5.93;;
20357;SDS011;75325;47.812;13.026;2024-03-22T07:43:21;10.88;;;5.10;;
20357;SDS011;75325;47.812;13.026;2024-03-22T07:45:49;12.95;;;5.60;;
20357;SDS011;75325;47.812;13.026;2024-03-22T07:48:17;23.13;;;7.95;;
20357;SDS011;75325;47.812;13.026;2024-03-22T07:50:44;16.83;;;6.15;;
20357;SDS011;75325;47.812;13.026;2024-03-22T07:53:10;14.00;;;5.80;;
20357;SDS011;75325;47.812;13.026;2024-03-22T07:55:39;12.90;;;5.28;;
20357;SDS011;75325;47.812;13.026;2024-03-22T07:58:05;13.20;;;6.60;;
20357;SDS011;75325;47.812;13.026;2024-03-22T08:00:33;13.63;;;5.68;;
20357;SDS011;75325;47.812;13.026;2024-03-22T08:02:59;16.20;;;6.63;;
20357;SDS011;75325;47.812;13.026;2024-03-22T08:05:28;9.88;;;5.28;;
20357;SDS011;75325;47.812;13.026;2024-03-22T08:07:54;15.15;;;5.93;;
20357;SDS011;75325;47.812;13.026;2024-03-22T08:10:23;23.17;;;4.38;;
20357;SDS011;75325;47.812;13.026;2024-03-22T08:12:50;13.10;;;6.15;;
20357;SDS011;75325;47.812;13.026;2024-03-22T08:15:18;14.05;;;5.75;;
20357;SDS011;75325;47.812;13.026;2024-03-22T08:17:44;10.57;;;5.93;;
20357;SDS011;75325;47.812;13.026;2024-03-22T08:20:11;13.20;;;4.80;;
20357;SDS011;75325;47.812;13.026;2024-03-22T08:22:39;8.48;;;4.93;;
20357;SDS011;75325;47.812;13.026;2024-03-22T08:25:07;15.27;;;5.25;;
20357;SDS011;75325;47.812;13.026;2024-03-22T08:27:34;10.55;;;4.22;;
20357;SDS011;75325;47.812;13.026;2024-03-22T08:30:01;12.18;;;5.78;;
20357;SDS011;75325;47.812;13.026;2024-03-22T08:32:31;9.80;;;4.93;;
20357;SDS011;75325;47.812;13.026;2024-03-22T08:34:58;9.43;;;4.90;;
20357;SDS011;75325;47.812;13.026;2024-03-22T08:37:24;13.07;;;5.60;;
20357;SDS011;75325;47.812;13.026;2024-03-22T08:39:53;12.35;;;5.82;;
20357;SDS011;75325;47.812;13.026;2024-03-22T08:42:19;14.38;;;5.07;;
20357;SDS011;75325;47.812;13.026;2024-03-22T08:44:47;12.23;;;5.45;;
20357;SDS011;75325;47.812;13.026;2024-03-22T08:47:13;11.57;;;5.13;;
20357;SDS011;75325;47.812;13.026;2024-03-22T08:49:40;10.50;;;4.93;;
20357;SDS011;75325;47.812;13.026;2024-03-22T08:52:07;15.57;;;5.50;;
20357;SDS011;75325;47.812;13.026;2024-03-22T08:54:34;11.13;;;4.43;;
20357;SDS011;75325;47.812;13.026;2024-03-22T08:57:02;10.65;;;5.05;;
20357;SDS011;75325;47.812;13.026;2024-03-22T08:59:29;14.35;;;5.30;;
20357;SDS011;75325;47.812;13.026;2024-03-22T09:01:56;9.75;;;4.47;;
20357;SDS011;75325;47.812;13.026;2024-03-22T09:04:25;11.70;;;5.35;;
20357;SDS011;75325;47.812;13.026;2024-03-22T09:06:51;16.05;;;5.32;;
20357;SDS011;75325;47.812;13.026;2024-03-22T09:09:18;9.50;;;4.07;;
20357;SDS011;75325;47.812;13.026;2024-03-22T09:11:46;11.30;;;5.07;;
20357;SDS011;75325;47.812;13.026;2024-03-22T09:14:17;13.57;;;4.47;;
20357;SDS011;75325;47.812;13.026;2024-03-22T09:16:43;10.50;;;4.72;;
20357;SDS011;75325;47.812;13.026;2024-03-22T09:19:10;11.07;;;4.97;;
20357;SDS011;75325;47.812;13.026;2024-03-22T09:21:36;11.95;;;5.32;;
20357;SDS011;75325;47.812;13.026;2024-03-22T09:24:04;12.52;;;4.63;;
20357;SDS011;75325;47.812;13.026;2024-03-22T09:26:31;11.35;;;5.07;;
20357;SDS011;75325;47.812;13.026;2024-03-22T09:28:59;10.45;;;4.97;;
20357;SDS011;75325;47.812;13.026;2024-03-22T09:31:26;12.32;;;5.00;;
20357;SDS011;75325;47.812;13.026;2024-03-22T09:33:53;8.45;;;4.13;;
20357;SDS011;75325;47.812;13.026;2024-03-22T09:36:20;15.45;;;6.35;;
20357;SDS011;75325;47.812;13.026;2024-03-22T09:38:47;9.45;;;4.68;;
20357;SDS011;75325;47.812;13.026;2024-03-22T09:41:13;19.13;;;8.10;;
20357;SDS011;75325;47.812;13.026;2024-03-22T09:43:41;13.00;;;5.82;;
20357;SDS011;75325;47.812;13.026;2024-03-22T09:46:11;6.38;;;3.47;;
20357;SDS011;75325;47.812;13.026;2024-03-22T09:48:42;8.02;;;4.88;;
20357;SDS011;75325;47.812;13.026;2024-03-22T09:51:09;6.68;;;3.83;;
20357;SDS011;75325;47.812;13.026;2024-03-22T09:53:37;18.92;;;4.82;;
20357;SDS011;75325;47.812;13.026;2024-03-22T09:56:05;11.68;;;6.38;;
20357;SDS011;75325;47.812;13.026;2024-03-22T09:58:33;7.15;;;3.75;;
20357;SDS011;75325;47.812;13.026;2024-03-22T10:01:00;5.97;;;2.97;;
20357;SDS011;75325;47.812;13.026;2024-03-22T10:03:28;6.75;;;4.05;;
20357;SDS011;75325;47.812;13.026;2024-03-22T10:06:05;8.23;;;4.30;;
20357;SDS011;75325;47.812;13.026;2024-03-22T10:08:34;8.77;;;4.45;;
20357;SDS011;75325;47.812;13.026;2024-03-22T10:11:03;8.25;;;3.20;;
20357;SDS011;75325;47.812;13.026;2024-03-22T10:13:30;9.63;;;3.63;;
20357;SDS011;75325;47.812;13.026;2024-03-22T10:15:57;14.98;;;4.20;;
20357;SDS011;75325;47.812;13.026;2024-03-22T10:18:25;6.43;;;3.50;;
20357;SDS011;75325;47.812;13.026;2024-03-22T10:21:03;6.60;;;3.30;;
20357;SDS011;75325;47.812;13.026;2024-03-22T10:23:31;8.70;;;4.28;;
20357;SDS011;75325;47.812;13.026;2024-03-22T10:25:57;12.15;;;3.95;;
20357;SDS011;75325;47.812;13.026;2024-03-22T10:28:25;4.85;;;2.90;;
20357;SDS011;75325;47.812;13.026;2024-03-22T10:30:52;8.98;;;3.15;;
20357;SDS011;75325;47.812;13.026;2024-03-22T10:33:19;6.85;;;2.88;;
20357;SDS011;75325;47.812;13.026;2024-03-22T10:35:49;6.53;;;3.15;;
20357;SDS011;75325;47.812;13.026;2024-03-22T10:38:20;6.30;;;2.70;;
20357;SDS011;75325;47.812;13.026;2024-03-22T10:40:47;9.20;;;3.75;;
20357;SDS011;75325;47.812;13.026;2024-03-22T10:43:15;6.10;;;3.20;;
20357;SDS011;75325;47.812;13.026;2024-03-22T10:45:42;8.02;;;2.72;;
20357;SDS011;75325;47.812;13.026;2024-03-22T10:48:13;7.40;;;3.65;;
20357;SDS011;75325;47.812;13.026;2024-03-22T10:50:43;8.60;;;3.83;;
20357;SDS011;75325;47.812;13.026;2024-03-22T10:53:11;9.15;;;2.60;;
20357;SDS011;75325;47.812;13.026;2024-03-22T10:55:43;7.47;;;3.40;;
20357;SDS011;75325;47.812;13.026;2024-03-22T10:58:14;4.47;;;2.80;;
20357;SDS011;75325;47.812;13.026;2024-03-22T11:00:41;5.47;;;3.00;;
20357;SDS011;75325;47.812;13.026;2024-03-22T11:03:10;7.28;;;2.97;;
20357;SDS011;75325;47.812;13.026;2024-03-22T11:05:44;8.32;;;3.80;;
20357;SDS011;75325;47.812;13.026;2024-03-22T11:08:12;10.45;;;4.20;;
20357;SDS011;75325;47.812;13.026;2024-03-22T11:10:39;8.90;;;4.07;;
20357;SDS011;75325;47.812;13.026;2024-03-22T11:13:08;9.05;;;4.43;;
20357;SDS011;75325;47.812;13.026;2024-03-22T11:15:35;4.65;;;3.00;;
20357;SDS011;75325;47.812;13.026;2024-03-22T11:18:02;4.20;;;2.88;;
20357;SDS011;75325;47.812;13.026;2024-03-22T11:20:28;7.20;;;3.45;;
20357;SDS011;75325;47.812;13.026;2024-03-22T11:22:56;10.40;;;4.70;;
20357;SDS011;75325;47.812;13.026;2024-03-22T11:25:22;8.02;;;3.95;;
20357;SDS011;75325;47.812;13.026;2024-03-22T11:27:51;5.55;;;3.58;;
20357;SDS011;75325;47.812;13.026;2024-03-22T11:30:21;6.65;;;3.45;;
20357;SDS011;75325;47.812;13.026;2024-03-22T11:32:50;9.10;;;5.28;;
20357;SDS011;75325;47.812;13.026;2024-03-22T11:35:17;10.90;;;3.88;;
20357;SDS011;75325;47.812;13.026;2024-03-22T11:37:45;9.80;;;3.97;;
20357;SDS011;75325;47.812;13.026;2024-03-22T11:40:11;8.45;;;3.30;;
20357;SDS011;75325;47.812;13.026;2024-03-22T11:42:39;6.47;;;3.80;;
20357;SDS011;75325;47.812;13.026;2024-03-22T11:45:08;6.22;;;3.45;;
20357;SDS011;75325;47.812;13.026;2024-03-22T11:47:39;17.52;;;4.50;;
20357;SDS011;75325;47.812;13.026;2024-03-22T11:50:05;10.82;;;4.20;;
20357;SDS011;75325;47.812;13.026;2024-03-22T11:52:34;14.82;;;4.70;;
20357;SDS011;75325;47.812;13.026;2024-03-22T11:55:01;15.13;;;4.65;;
20357;SDS011;75325;47.812;13.026;2024-03-22T11:57:28;14.13;;;4.78;;
20357;SDS011;75325;47.812;13.026;2024-03-22T11:59:58;8.90;;;3.63;;
20357;SDS011;75325;47.812;13.026;2024-03-22T12:02:26;9.15;;;3.95;;
20357;SDS011;75325;47.812;13.026;2024-03-22T12:04:54;7.95;;;2.90;;
20357;SDS011;75325;47.812;13.026;2024-03-22T12:07:21;9.27;;;3.70;;
20357;SDS011;75325;47.812;13.026;2024-03-22T12:09:49;4.43;;;3.00;;
20357;SDS011;75325;47.812;13.026;2024-03-22T12:12:20;6.97;;;2.25;;
20357;SDS011;75325;47.812;13.026;2024-03-22T12:14:47;3.47;;;2.17;;
20357;SDS011;75325;47.812;13.026;2024-03-22T12:17:16;3.30;;;2.15;;
20357;SDS011;75325;47.812;13.026;2024-03-22T12:19:42;5.80;;;2.05;;
20357;SDS011;75325;47.812;13.026;2024-03-22T12:22:11;13.85;;;3.80;;
20357;SDS011;75325;47.812;13.026;2024-03-22T12:24:37;4.75;;;2.22;;
20357;SDS011;75325;47.812;13.026;2024-03-22T12:27:05;5.70;;;2.05;;
20357;SDS011;75325;47.812;13.026;2024-03-22T12:29:31;8.50;;;3.05;;
20357;SDS011;75325;47.812;13.026;2024-03-22T12:31:59;21.45;;;7.25;;
20357;SDS011;75325;47.812;13.026;2024-03-22T12:34:27;32.70;;;7.90;;
20357;SDS011;75325;47.812;13.026;2024-03-22T12:36:55;6.00;;;3.00;;
20357;SDS011;75325;47.812;13.026;2024-03-22T12:39:22;6.68;;;2.83;;
20357;SDS011;75325;47.812;13.026;2024-03-22T12:41:50;14.02;;;2.67;;
20357;SDS011;75325;47.812;13.026;2024-03-22T12:44:17;4.95;;;2.10;;
20357;SDS011;75325;47.812;13.026;2024-03-22T12:46:44;4.47;;;2.53;;
20357;SDS011;75325;47.812;13.026;2024-03-22T12:49:11;6.40;;;2.65;;
20357;SDS011;75325;47.812;13.026;2024-03-22T12:51:38;3.67;;;1.90;;
20357;SDS011;75325;47.812;13.026;2024-03-22T12:54:04;9.00;;;2.50;;
20357;SDS011;75325;47.812;13.026;2024-03-22T12:56:34;5.15;;;2.35;;
20357;SDS011;75325;47.812;13.026;2024-03-22T12:59:02;7.45;;;2.28;;
20357;SDS011;75325;47.812;13.026;2024-03-22T13:01:30;5.72;;;2.53;;
20357;SDS011;75325;47.812;13.026;2024-03-22T13:03:56;13.57;;;3.00;;
20357;SDS011;75325;47.812;13.026;2024-03-22T13:06:26;4.72;;;2.90;;
20357;SDS011;75325;47.812;13.026;2024-03-22T13:08:52;9.45;;;3.10;;
20357;SDS011;75325;47.812;13.026;2024-03-22T13:11:19;6.55;;;2.50;;
20357;SDS011;75325;47.812;13.026;2024-03-22T13:13:47;5.07;;;2.65;;
20357;SDS011;75325;47.812;13.026;2024-03-22T13:16:14;3.08;;;2.15;;
20357;SDS011;75325;47.812;13.026;2024-03-22T13:18:41;10.60;;;2.17;;
20357;SDS011;75325;47.812;13.026;2024-03-22T13:21:09;5.10;;;3.40;;
20357;SDS011;75325;47.812;13.026;2024-03-22T13:23:36;3.17;;;2.33;;
20357;SDS011;75325;47.812;13.026;2024-03-22T13:26:04;3.58;;;2.25;;
20357;SDS011;75325;47.812;13.026;2024-03-22T13:28:32;5.65;;;2.15;;
20357;SDS011;75325;47.812;13.026;2024-03-22T13:31:01;4.60;;;2.35;;
20357;SDS011;75325;47.812;13.026;2024-03-22T13:33:29;3.55;;;2.10;;
20357;SDS011;75325;47.812;13.026;2024-03-22T13:35:57;10.00;;;2.65;;
20357;SDS011;75325;47.812;13.026;2024-03-22T13:38:24;6.47;;;2.80;;
20357;SDS011;75325;47.812;13.026;2024-03-22T13:40:52;8.23;;;2.97;;
20357;SDS011;75325;47.812;13.026;2024-03-22T13:43:19;5.05;;;2.20;;
20357;SDS011;75325;47.812;13.026;2024-03-22T13:45:47;5.85;;;2.63;;
20357;SDS011;75325;47.812;13.026;2024-03-22T13:48:17;7.70;;;3.28;;
20357;SDS011;75325;47.812;13.026;2024-03-22T13:50:45;11.63;;;3.38;;
20357;SDS011;75325;47.812;13.026;2024-03-22T13:53:13;4.88;;;2.50;;
20357;SDS011;75325;47.812;13.026;2024-03-22T13:55:42;3.78;;;2.40;;
20357;SDS011;75325;47.812;13.026;2024-03-22T13:58:08;3.15;;;2.22;;
20357;SDS011;75325;47.812;13.026;2024-03-22T14:00:35;4.28;;;2.42;;
20357;SDS011;75325;47.812;13.026;2024-03-22T14:03:02;4.95;;;2.53;;
20357;SDS011;75325;47.812;13.026;2024-03-22T14:05:31;3.85;;;2.63;;
20357;SDS011;75325;47.812;13.026;2024-03-22T14:07:58;9.93;;;2.30;;
20357;SDS011;75325;47.812;13.026;2024-03-22T14:10:25;12.55;;;4.63;;
20357;SDS011;75325;47.812;13.026;2024-03-22T14:12:53;11.40;;;3.45;;
20357;SDS011;75325;47.812;13.026;2024-03-22T14:15:20;7.43;;;2.20;;
20357;SDS011;75325;47.812;13.026;2024-03-22T14:17:46;5.38;;;2.70;;
20357;SDS011;75325;47.812;13.026;2024-03-22T14:20:14;8.57;;;3.72;;
20357;SDS011;75325;47.812;13.026;2024-03-22T14:22:41;21.20;;;2.95;;
20357;SDS011;75325;47.812;13.026;2024-03-22T14:25:09;6.35;;;3.13;;
20357;SDS011;75325;47.812;13.026;2024-03-22T14:27:36;5.28;;;2.50;;
20357;SDS011;75325;47.812;13.026;2024-03-22T14:30:04;3.75;;;2.38;;
20357;SDS011;75325;47.812;13.026;2024-03-22T14:32:33;4.85;;;2.92;;